sensor_id;sensor_type;location;lat;lon;timestamp;pressure;altitude;pressure_sealevel;temperature;humidity
33454;BME280;39400;49.744;7.012;2022-11-30T00:01:07;96355.34;;;4.62;100.00
33454;BME280;39400;49.744;7.012;2022-11-30T00:03:35;96352.84;;;4.57;100.00
33454;BME280;39400;49.744;7.012;2022-11-30T00:06:05;96348.34;;;4.61;100.00
33454;BME280;39400;49.744;7.012;2022-11-30T00:08:31;96344.25;;;4.55;100.00
33454;BME280;39400;49.744;7.012;2022-11-30T00:10:56;96344.53;;;4.38;100.00
33454;BME280;39400;49.744;7.012;2022-11-30T00:13:21;96342.94;;;4.37;100.00
33454;BME280;39400;49.744;7.012;2022-11-30T00:15:47;96348.47;;;4.52;100.00
33454;BME280;39400;49.744;7.012;2022-11-30T00:18:13;96346.78;;;4.48;100.00
33454;BME280;39400;49.744;7.012;2022-11-30T00:20:38;96342.47;;;4.47;100.00
33454;BME280;39400;49.744;7.012;2022-11-30T00:23:03;96346.09;;;4.51;100.00
33454;BME280;39400;49.744;7.012;2022-11-30T00:25:29;96341.97;;;4.57;100.00
33454;BME280;39400;49.744;7.012;2022-11-30T00:27:54;96348.47;;;4.52;100.00
33454;BME280;39400;49.744;7.012;2022-11-30T00:30:19;96339.22;;;4.69;100.00
33454;BME280;39400;49.744;7.012;2022-11-30T00:32:45;96335.34;;;4.70;100.00
33454;BME280;39400;49.744;7.012;2022-11-30T00:35:10;96335.84;;;4.60;100.00
33454;BME280;39400;49.744;7.012;2022-11-30T00:37:35;96331.31;;;4.64;100.00
33454;BME280;39400;49.744;7.012;2022-11-30T00:40:01;96342.09;;;4.61;100.00
33454;BME280;39400;49.744;7.012;2022-11-30T00:42:26;96332.00;;;4.61;100.00
33454;BME280;39400;49.744;7.012;2022-11-30T00:44:51;96334.66;;;4.73;100.00
33454;BME280;39400;49.744;7.012;2022-11-30T00:47:17;96333.88;;;4.73;100.00
33454;BME280;39400;49.744;7.012;2022-11-30T00:49:42;96337.75;;;4.72;100.00
33454;BME280;39400;49.744;7.012;2022-11-30T00:52:07;96347.25;;;4.78;100.00
33454;BME280;39400;49.744;7.012;2022-11-30T00:54:33;96346.94;;;4.67;100.00
33454;BME280;39400;49.744;7.012;2022-11-30T00:56:58;96335.34;;;4.70;100.00
33454;BME280;39400;49.744;7.012;2022-11-30T00:59:23;96340.09;;;4.73;100.00
33454;BME280;39400;49.744;7.012;2022-11-30T01:01:49;96345.56;;;4.73;100.00
33454;BME280;39400;49.744;7.012;2022-11-30T01:04:14;96346.41;;;4.62;100.00
33454;BME280;39400;49.744;7.012;2022-11-30T01:06:39;96338.41;;;4.41;100.00
33454;BME280;39400;49.744;7.012;2022-11-30T01:09:05;96346.13;;;4.26;100.00
33454;BME280;39400;49.744;7.012;2022-11-30T01:11:30;96345.56;;;4.33;100.00
33454;BME280;39400;49.744;7.012;2022-11-30T01:13:58;96348.34;;;4.49;100.00
33454;BME280;39400;49.744;7.012;2022-11-30T01:16:27;96351.13;;;4.24;100.00
33454;BME280;39400;49.744;7.012;2022-11-30T01:18:53;96342.28;;;4.15;100.00
33454;BME280;39400;49.744;7.012;2022-11-30T01:21:23;96348.88;;;4.14;100.00
33454;BME280;39400;49.744;7.012;2022-11-30T01:23:49;96344.22;;;4.27;100.00
33454;BME280;39400;49.744;7.012;2022-11-30T01:26:15;96346.31;;;4.46;100.00
33454;BME280;39400;49.744;7.012;2022-11-30T01:28:41;96326.53;;;4.61;100.00
33454;BME280;39400;49.744;7.012;2022-11-30T01:31:09;96333.38;;;4.55;100.00
33454;BME280;39400;49.744;7.012;2022-11-30T01:33:35;96335.69;;;4.41;100.00
33454;BME280;39400;49.744;7.012;2022-11-30T01:38:35;96333.59;;;4.50;100.00
33454;BME280;39400;49.744;7.012;2022-11-30T01:41:03;96338.81;;;4.55;100.00
33454;BME280;39400;49.744;7.012;2022-11-30T01:46:16;96328.81;;;4.59;100.00
33454;BME280;39400;49.744;7.012;2022-11-30T01:48:43;96329.69;;;4.63;100.00
33454;BME280;39400;49.744;7.012;2022-11-30T01:51:09;96331.31;;;4.64;100.00
33454;BME280;39400;49.744;7.012;2022-11-30T01:53:34;96334.47;;;4.66;100.00
33454;BME280;39400;49.744;7.012;2022-11-30T01:55:59;96329.66;;;4.75;100.00
33454;BME280;39400;49.744;7.012;2022-11-30T01:58:28;96332.56;;;4.55;100.00
33454;BME280;39400;49.744;7.012;2022-11-30T02:00:54;96327.88;;;4.67;100.00
33454;BME280;39400;49.744;7.012;2022-11-30T02:03:23;96327.13;;;4.83;100.00
33454;BME280;39400;49.744;7.012;2022-11-30T02:05:52;96331.25;;;4.76;100.00
33454;BME280;39400;49.744;7.012;2022-11-30T02:08:19;96334.38;;;4.91;100.00
33454;BME280;39400;49.744;7.012;2022-11-30T02:10:50;96337.53;;;4.93;100.00
33454;BME280;39400;49.744;7.012;2022-11-30T02:13:38;96336.56;;;4.85;100.00
33454;BME280;39400;49.744;7.012;2022-11-30T02:30:22;96350.38;;;3.75;100.00
33454;BME280;39400;49.744;7.012;2022-11-30T02:32:52;96359.53;;;3.83;100.00
33454;BME280;39400;49.744;7.012;2022-11-30T02:35:22;96354.56;;;3.85;100.00
33454;BME280;39400;49.744;7.012;2022-11-30T02:37:50;96352.28;;;3.87;100.00
33454;BME280;39400;49.744;7.012;2022-11-30T02:40:18;96358.06;;;3.85;100.00
33454;BME280;39400;49.744;7.012;2022-11-30T02:42:44;96355.22;;;3.94;100.00
33454;BME280;39400;49.744;7.012;2022-11-30T02:45:10;96352.41;;;3.90;100.00
33454;BME280;39400;49.744;7.012;2022-11-30T02:50:24;96353.63;;;4.17;100.00
33454;BME280;39400;49.744;7.012;2022-11-30T02:52:52;96351.53;;;4.39;100.00
33454;BME280;39400;49.744;7.012;2022-11-30T02:55:19;96348.34;;;4.61;100.00
33454;BME280;39400;49.744;7.012;2022-11-30T02:57:44;96344.94;;;4.52;100.00
33454;BME280;39400;49.744;7.012;2022-11-30T03:00:11;96347.91;;;4.47;100.00
33454;BME280;39400;49.744;7.012;2022-11-30T03:02:38;96349.28;;;4.41;100.00
33454;BME280;39400;49.744;7.012;2022-11-30T03:05:04;96343.84;;;4.41;100.00
33454;BME280;39400;49.744;7.012;2022-11-30T03:07:30;96347.66;;;4.64;100.00
33454;BME280;39400;49.744;7.012;2022-11-30T03:09:55;96344.00;;;4.60;100.00
33454;BME280;39400;49.744;7.012;2022-11-30T03:12:21;96337.44;;;4.61;100.00
33454;BME280;39400;49.744;7.012;2022-11-30T03:14:46;96344.66;;;4.69;100.00
33454;BME280;39400;49.744;7.012;2022-11-30T03:17:12;96343.69;;;4.49;100.00
33454;BME280;39400;49.744;7.012;2022-11-30T03:19:37;96347.91;;;4.47;100.00
33454;BME280;39400;49.744;7.012;2022-11-30T03:22:02;96340.59;;;4.63;100.00
33454;BME280;39400;49.744;7.012;2022-11-30T03:24:28;96338.97;;;4.74;100.00
33454;BME280;39400;49.744;7.012;2022-11-30T03:26:54;96341.91;;;4.82;100.00
33454;BME280;39400;49.744;7.012;2022-11-30T03:29:19;96347.13;;;4.74;100.00
33454;BME280;39400;49.744;7.012;2022-11-30T03:31:44;96347.13;;;4.74;100.00
33454;BME280;39400;49.744;7.012;2022-11-30T03:34:10;96352.34;;;4.80;100.00
33454;BME280;39400;49.744;7.012;2022-11-30T03:36:35;96348.16;;;4.82;100.00
33454;BME280;39400;49.744;7.012;2022-11-30T03:39:01;96354.38;;;4.83;100.00
33454;BME280;39400;49.744;7.012;2022-11-30T03:41:26;96350.56;;;4.71;100.00
33454;BME280;39400;49.744;7.012;2022-11-30T03:43:52;96363.38;;;4.71;100.00
33454;BME280;39400;49.744;7.012;2022-11-30T03:46:17;96357.25;;;4.74;100.00
33454;BME280;39400;49.744;7.012;2022-11-30T03:48:42;96358.38;;;4.73;100.00
33454;BME280;39400;49.744;7.012;2022-11-30T03:51:09;96351.47;;;4.75;100.00
33454;BME280;39400;49.744;7.012;2022-11-30T03:53:35;96357.44;;;4.81;100.00
33454;BME280;39400;49.744;7.012;2022-11-30T03:56:02;96354.38;;;4.83;100.00
33454;BME280;39400;49.744;7.012;2022-11-30T03:58:28;96350.97;;;4.86;100.00
33454;BME280;39400;49.744;7.012;2022-11-30T04:01:09;96362.09;;;4.81;100.00
33454;BME280;39400;49.744;7.012;2022-11-30T04:03:35;96361.22;;;4.76;100.00
33454;BME280;39400;49.744;7.012;2022-11-30T04:06:01;96351.41;;;4.88;100.00
33454;BME280;39400;49.744;7.012;2022-11-30T04:08:27;96359.16;;;4.86;100.00
33454;BME280;39400;49.744;7.012;2022-11-30T04:10:54;96358.25;;;4.82;100.00
33454;BME280;39400;49.744;7.012;2022-11-30T04:13:20;96361.22;;;4.76;100.00
33454;BME280;39400;49.744;7.012;2022-11-30T04:15:47;96352.81;;;4.82;100.00
33454;BME280;39400;49.744;7.012;2022-11-30T04:18:14;96363.28;;;4.67;100.00
33454;BME280;39400;49.744;7.012;2022-11-30T04:20:39;96349.97;;;4.38;100.00
33454;BME280;39400;49.744;7.012;2022-11-30T04:23:05;96356.09;;;4.22;100.00
33454;BME280;39400;49.744;7.012;2022-11-30T04:25:30;96359.28;;;4.24;100.00
33454;BME280;39400;49.744;7.012;2022-11-30T04:27:56;96350.66;;;4.22;100.00
33454;BME280;39400;49.744;7.012;2022-11-30T04:30:21;96353.16;;;4.15;100.00
33454;BME280;39400;49.744;7.012;2022-11-30T04:32:46;96356.81;;;4.07;100.00
33454;BME280;39400;49.744;7.012;2022-11-30T04:35:12;96356.59;;;4.12;100.00
33454;BME280;39400;49.744;7.012;2022-11-30T04:37:37;96351.38;;;4.07;100.00
33454;BME280;39400;49.744;7.012;2022-11-30T04:40:03;96359.88;;;4.05;100.00
33454;BME280;39400;49.744;7.012;2022-11-30T04:42:28;96358.19;;;4.13;100.00
33454;BME280;39400;49.744;7.012;2022-11-30T04:44:53;96369.03;;;4.25;100.00
33454;BME280;39400;49.744;7.012;2022-11-30T04:47:19;96364.97;;;4.19;100.00
33454;BME280;39400;49.744;7.012;2022-11-30T04:49:44;96354.66;;;4.00;100.00
33454;BME280;39400;49.744;7.012;2022-11-30T04:52:09;96368.94;;;3.97;100.00
33454;BME280;39400;49.744;7.012;2022-11-30T04:54:35;96369.41;;;3.99;100.00
33454;BME280;39400;49.744;7.012;2022-11-30T04:57:00;96366.09;;;3.94;100.00
33454;BME280;39400;49.744;7.012;2022-11-30T04:59:25;96373.59;;;3.97;100.00
33454;BME280;39400;49.744;7.012;2022-11-30T05:01:51;96372.91;;;4.24;100.00
33454;BME280;39400;49.744;7.012;2022-11-30T05:04:16;96370.38;;;4.44;100.00
33454;BME280;39400;49.744;7.012;2022-11-30T05:06:41;96369.81;;;4.38;100.00
33454;BME280;39400;49.744;7.012;2022-11-30T05:09:06;96364.34;;;4.50;100.00
33454;BME280;39400;49.744;7.012;2022-11-30T05:11:32;96353.56;;;4.54;100.00
33454;BME280;39400;49.744;7.012;2022-11-30T05:13:57;96360.81;;;4.62;100.00
33454;BME280;39400;49.744;7.012;2022-11-30T05:16:22;96361.03;;;4.57;100.00
33454;BME280;39400;49.744;7.012;2022-11-30T05:18:48;96356.25;;;4.66;100.00
33454;BME280;39400;49.744;7.012;2022-11-30T05:21:13;96359.53;;;4.72;100.00
33454;BME280;39400;49.744;7.012;2022-11-30T05:23:38;96357.63;;;4.60;100.00
33454;BME280;39400;49.744;7.012;2022-11-30T05:26:04;96358.06;;;4.62;100.00
33454;BME280;39400;49.744;7.012;2022-11-30T05:28:29;96365.41;;;4.34;100.00
33454;BME280;39400;49.744;7.012;2022-11-30T05:30:54;96361.75;;;4.42;100.00
33454;BME280;39400;49.744;7.012;2022-11-30T05:33:20;96364.72;;;4.37;100.00
33454;BME280;39400;49.744;7.012;2022-11-30T05:35:45;96373.25;;;4.23;100.00
33454;BME280;39400;49.744;7.012;2022-11-30T05:38:10;96372.69;;;4.17;100.00
33454;BME280;39400;49.744;7.012;2022-11-30T05:40:36;96373.13;;;4.32;100.00
33454;BME280;39400;49.744;7.012;2022-11-30T05:43:02;96375.47;;;4.45;100.00
33454;BME280;39400;49.744;7.012;2022-11-30T05:45:28;96375.72;;;4.40;100.00
33454;BME280;39400;49.744;7.012;2022-11-30T05:47:54;96372.44;;;4.35;100.00
33454;BME280;39400;49.744;7.012;2022-11-30T05:50:19;96379.13;;;4.25;100.00
33454;BME280;39400;49.744;7.012;2022-11-30T05:52:52;96375.34;;;4.54;100.00
33454;BME280;39400;49.744;7.012;2022-11-30T05:55:17;96371.63;;;4.34;100.00
33454;BME280;39400;49.744;7.012;2022-11-30T05:57:42;96374.72;;;4.20;100.00
33454;BME280;39400;49.744;7.012;2022-11-30T06:00:08;96379.69;;;4.18;100.00
33454;BME280;39400;49.744;7.012;2022-11-30T06:02:39;96378.13;;;4.17;100.00
33454;BME280;39400;49.744;7.012;2022-11-30T06:05:05;96382.88;;;4.20;100.00
33454;BME280;39400;49.744;7.012;2022-11-30T06:07:30;96376.50;;;4.28;100.00
33454;BME280;39400;49.744;7.012;2022-11-30T06:09:56;96382.22;;;4.23;100.00
33454;BME280;39400;49.744;7.012;2022-11-30T06:12:21;96380.59;;;4.22;100.00
33454;BME280;39400;49.744;7.012;2022-11-30T06:14:46;96384.03;;;4.19;100.00
33454;BME280;39400;49.744;7.012;2022-11-30T06:17:12;96377.44;;;4.20;100.00
33454;BME280;39400;49.744;7.012;2022-11-30T06:19:37;96392.88;;;4.16;100.00
33454;BME280;39400;49.744;7.012;2022-11-30T06:22:02;96392.09;;;4.16;100.00
33454;BME280;39400;49.744;7.012;2022-11-30T06:24:28;96390.59;;;4.18;100.00
33454;BME280;39400;49.744;7.012;2022-11-30T06:26:53;96390.81;;;4.13;100.00
33454;BME280;39400;49.744;7.012;2022-11-30T06:29:18;96389.00;;;4.05;100.00
33454;BME280;39400;49.744;7.012;2022-11-30T06:31:44;96394.91;;;4.07;100.00
33454;BME280;39400;49.744;7.012;2022-11-30T06:34:09;96389.34;;;4.03;100.00
33454;BME280;39400;49.744;7.012;2022-11-30T06:36:34;96390.94;;;4.04;100.00
33454;BME280;39400;49.744;7.012;2022-11-30T06:39:00;96386.97;;;4.02;100.00
33454;BME280;39400;49.744;7.012;2022-11-30T06:41:25;96386.97;;;4.02;100.00
33454;BME280;39400;49.744;7.012;2022-11-30T06:43:51;96391.84;;;3.96;100.00
33454;BME280;39400;49.744;7.012;2022-11-30T06:46:16;96385.50;;;4.04;100.00
33454;BME280;39400;49.744;7.012;2022-11-30T06:48:42;96396.03;;;3.94;100.00
33454;BME280;39400;49.744;7.012;2022-11-30T06:51:08;96399.78;;;4.01;100.00
33454;BME280;39400;49.744;7.012;2022-11-30T06:53:35;96399.00;;;3.89;100.00
33454;BME280;39400;49.744;7.012;2022-11-30T06:56:05;96399.00;;;3.89;100.00
33454;BME280;39400;49.744;7.012;2022-11-30T06:58:30;96400.56;;;3.90;100.00
33454;BME280;39400;49.744;7.012;2022-11-30T07:00:55;96399.44;;;3.91;100.00
33454;BME280;39400;49.744;7.012;2022-11-30T07:03:21;96403.75;;;3.92;100.00
33454;BME280;39400;49.744;7.012;2022-11-30T07:05:46;96407.81;;;3.98;100.00
33454;BME280;39400;49.744;7.012;2022-11-30T07:08:13;96410.53;;;3.98;100.00
33454;BME280;39400;49.744;7.012;2022-11-30T07:10:40;96408.50;;;3.95;100.00
33454;BME280;39400;49.744;7.012;2022-11-30T07:13:09;96409.63;;;3.94;100.00
33454;BME280;39400;49.744;7.012;2022-11-30T07:15:34;96415.88;;;3.94;100.00
33454;BME280;39400;49.744;7.012;2022-11-30T07:18:00;96420.41;;;4.02;100.00
33454;BME280;39400;49.744;7.012;2022-11-30T07:20:25;96405.91;;;3.98;100.00
33454;BME280;39400;49.744;7.012;2022-11-30T07:22:54;96408.97;;;3.97;100.00
33454;BME280;39400;49.744;7.012;2022-11-30T07:25:20;96419.06;;;3.96;100.00
33454;BME280;39400;49.744;7.012;2022-11-30T07:27:45;96421.66;;;3.93;100.00
33454;BME280;39400;49.744;7.012;2022-11-30T07:30:11;96416.88;;;3.90;100.00
33454;BME280;39400;49.744;7.012;2022-11-30T07:32:36;96422.34;;;3.90;100.00
33454;BME280;39400;49.744;7.012;2022-11-30T07:35:01;96426.44;;;3.96;100.00
33454;BME280;39400;49.744;7.012;2022-11-30T07:37:27;96420.28;;;3.87;100.00
33454;BME280;39400;49.744;7.012;2022-11-30T07:39:52;96429.34;;;3.91;100.00
33454;BME280;39400;49.744;7.012;2022-11-30T07:42:18;96423.91;;;3.91;100.00
33454;BME280;39400;49.744;7.012;2022-11-30T07:44:43;96429.47;;;3.94;100.00
33454;BME280;39400;49.744;7.012;2022-11-30T07:47:08;96429.25;;;3.99;100.00
33454;BME280;39400;49.744;7.012;2022-11-30T07:49:34;96436.63;;;3.99;100.00
33454;BME280;39400;49.744;7.012;2022-11-30T07:51:59;96433.44;;;3.97;100.00
33454;BME280;39400;49.744;7.012;2022-11-30T07:54:24;96438.22;;;4.00;100.00
33454;BME280;39400;49.744;7.012;2022-11-30T07:56:50;96430.38;;;4.11;100.00
33454;BME280;39400;49.744;7.012;2022-11-30T07:59:15;96430.63;;;4.05;100.00
33454;BME280;39400;49.744;7.012;2022-11-30T08:01:41;96430.19;;;4.16;100.00
33454;BME280;39400;49.744;7.012;2022-11-30T08:04:06;96419.16;;;4.00;100.00
33454;BME280;39400;49.744;7.012;2022-11-30T08:06:31;96427.34;;;4.12;100.00
33454;BME280;39400;49.744;7.012;2022-11-30T08:08:59;96431.19;;;4.11;100.00
33454;BME280;39400;49.744;7.012;2022-11-30T08:11:27;96423.22;;;3.94;100.00
33454;BME280;39400;49.744;7.012;2022-11-30T08:13:53;96427.78;;;4.02;100.00
33454;BME280;39400;49.744;7.012;2022-11-30T08:16:23;96429.81;;;4.05;100.00
33454;BME280;39400;49.744;7.012;2022-11-30T08:18:50;96436.41;;;4.16;100.00
33454;BME280;39400;49.744;7.012;2022-11-30T08:21:18;96438.69;;;4.26;100.00
33454;BME280;39400;49.744;7.012;2022-11-30T08:23:49;96440.59;;;4.26;100.00
33454;BME280;39400;49.744;7.012;2022-11-30T08:26:18;96438.00;;;4.17;100.00
33454;BME280;39400;49.744;7.012;2022-11-30T08:28:45;96438.66;;;4.14;100.00
33454;BME280;39400;49.744;7.012;2022-11-30T08:31:13;96439.47;;;4.15;100.00
33454;BME280;39400;49.744;7.012;2022-11-30T08:33:39;96447.06;;;4.34;100.00
33454;BME280;39400;49.744;7.012;2022-11-30T08:36:13;96448.88;;;4.17;100.00
33454;BME280;39400;49.744;7.012;2022-11-30T08:38:40;96449.34;;;4.19;100.00
33454;BME280;39400;49.744;7.012;2022-11-30T08:41:07;96446.28;;;4.21;100.00
33454;BME280;39400;49.744;7.012;2022-11-30T08:43:33;96452.75;;;4.41;100.00
33454;BME280;39400;49.744;7.012;2022-11-30T08:45:58;96455.44;;;4.28;100.00
33454;BME280;39400;49.744;7.012;2022-11-30T08:48:23;96454.09;;;4.35;100.00
33454;BME280;39400;49.744;7.012;2022-11-30T08:50:49;96448.75;;;4.38;100.00
33454;BME280;39400;49.744;7.012;2022-11-30T08:53:14;96441.19;;;4.19;100.00
33454;BME280;39400;49.744;7.012;2022-11-30T08:55:40;96457.28;;;4.24;100.00
33454;BME280;39400;49.744;7.012;2022-11-30T08:58:05;96453.31;;;4.10;100.00
33454;BME280;39400;49.744;7.012;2022-11-30T09:00:30;96455.00;;;4.14;100.00
33454;BME280;39400;49.744;7.012;2022-11-30T09:02:56;96455.22;;;4.21;100.00
33454;BME280;39400;49.744;7.012;2022-11-30T09:05:21;96456.56;;;4.15;100.00
33454;BME280;39400;49.744;7.012;2022-11-30T09:07:47;96459.53;;;4.10;100.00
33454;BME280;39400;49.744;7.012;2022-11-30T09:10:13;96457.84;;;4.05;100.00
33454;BME280;39400;49.744;7.012;2022-11-30T09:12:39;96462.56;;;4.09;100.00
33454;BME280;39400;49.744;7.012;2022-11-30T09:15:06;96462.94;;;4.07;100.00
33454;BME280;39400;49.744;7.012;2022-11-30T09:17:32;96459.53;;;4.10;100.00
33454;BME280;39400;49.744;7.012;2022-11-30T09:19:58;96465.88;;;4.14;100.00
33454;BME280;39400;49.744;7.012;2022-11-30T09:22:24;96461.34;;;4.06;100.00
33454;BME280;39400;49.744;7.012;2022-11-30T09:24:49;96473.13;;;4.10;100.00
33454;BME280;39400;49.744;7.012;2022-11-30T09:27:15;96472.00;;;4.11;100.00
33454;BME280;39400;49.744;7.012;2022-11-30T09:29:40;96476.66;;;4.11;100.00
33454;BME280;39400;49.744;7.012;2022-11-30T09:32:05;96475.63;;;4.15;100.00
33454;BME280;39400;49.744;7.012;2022-11-30T09:34:31;96482.00;;;4.19;100.00
33454;BME280;39400;49.744;7.012;2022-11-30T09:36:56;96486.75;;;4.35;100.00
33454;BME280;39400;49.744;7.012;2022-11-30T09:39:22;96484.97;;;4.26;100.00
33454;BME280;39400;49.744;7.012;2022-11-30T09:47:51;96476.56;;;4.19;100.00
33454;BME280;39400;49.744;7.012;2022-11-30T09:50:21;96472.91;;;4.15;100.00
33454;BME280;39400;49.744;7.012;2022-11-30T09:55:28;96479.28;;;4.44;100.00
33454;BME280;39400;49.744;7.012;2022-11-30T09:57:58;96472.00;;;4.36;100.00
33454;BME280;39400;49.744;7.012;2022-11-30T10:00:25;96483.22;;;4.22;100.00
33454;BME280;39400;49.744;7.012;2022-11-30T10:02:52;96471.78;;;4.16;100.00
33454;BME280;39400;49.744;7.012;2022-11-30T10:05:21;96464.97;;;4.22;100.00
33454;BME280;39400;49.744;7.012;2022-11-30T10:10:33;96467.47;;;4.27;100.00
33454;BME280;39400;49.744;7.012;2022-11-30T10:19:03;96476.56;;;4.32;100.00
33454;BME280;39400;49.744;7.012;2022-11-30T10:24:37;96464.09;;;4.31;100.00
33454;BME280;39400;49.744;7.012;2022-11-30T10:27:16;96461.69;;;4.29;100.00
33454;BME280;39400;49.744;7.012;2022-11-30T10:29:42;96471.34;;;4.39;100.00
33454;BME280;39400;49.744;7.012;2022-11-30T10:32:21;96467.72;;;4.35;100.00
33454;BME280;39400;49.744;7.012;2022-11-30T10:34:54;96467.72;;;4.35;100.00
33454;BME280;39400;49.744;7.012;2022-11-30T10:37:32;96462.03;;;4.27;100.00
33454;BME280;39400;49.744;7.012;2022-11-30T10:40:07;96467.59;;;4.31;100.00
33454;BME280;39400;49.744;7.012;2022-11-30T10:43:05;96466.56;;;4.36;100.00
33454;BME280;39400;49.744;7.012;2022-11-30T10:45:36;96463.63;;;4.41;100.00
33454;BME280;39400;49.744;7.012;2022-11-30T10:48:39;96457.75;;;4.26;100.00
33454;BME280;39400;49.744;7.012;2022-11-30T10:51:07;96462.03;;;4.27;100.00
33454;BME280;39400;49.744;7.012;2022-11-30T10:53:35;96465.22;;;4.29;100.00
33454;BME280;39400;49.744;7.012;2022-11-30T10:56:10;96463.41;;;4.34;100.00
33454;BME280;39400;49.744;7.012;2022-11-30T10:59:00;96459.19;;;4.24;100.00
33454;BME280;39400;49.744;7.012;2022-11-30T11:04:15;96460.00;;;4.37;100.00
33454;BME280;39400;49.744;7.012;2022-11-30T11:09:44;96456.13;;;4.25;100.00
33454;BME280;39400;49.744;7.012;2022-11-30T11:12:24;96454.44;;;4.45;100.00
33454;BME280;39400;49.744;7.012;2022-11-30T11:15:18;96462.84;;;4.40;100.00
33454;BME280;39400;49.744;7.012;2022-11-30T11:17:43;96452.59;;;4.62;100.00
33454;BME280;39400;49.744;7.012;2022-11-30T11:20:41;96453.41;;;4.62;100.00
33454;BME280;39400;49.744;7.012;2022-11-30T11:23:19;96449.53;;;4.75;100.00
33454;BME280;39400;49.744;7.012;2022-11-30T11:25:49;96450.34;;;4.51;100.00
33454;BME280;39400;49.744;7.012;2022-11-30T11:28:15;96446.84;;;4.51;100.00
33454;BME280;39400;49.744;7.012;2022-11-30T11:30:40;96449.31;;;4.56;100.00
33454;BME280;39400;49.744;7.012;2022-11-30T11:38:40;96442.97;;;4.40;100.00
33454;BME280;39400;49.744;7.012;2022-11-30T11:41:22;96449.66;;;4.42;100.00
33454;BME280;39400;49.744;7.012;2022-11-30T11:47:00;96453.97;;;4.68;100.00
33454;BME280;39400;49.744;7.012;2022-11-30T11:49:36;96459.63;;;4.63;100.00
33454;BME280;39400;49.744;7.012;2022-11-30T11:52:06;96455.22;;;4.46;100.00
33454;BME280;39400;49.744;7.012;2022-11-30T11:54:56;96463.06;;;4.47;100.00
33454;BME280;39400;49.744;7.012;2022-11-30T12:00:05;96457.16;;;4.58;100.00
33454;BME280;39400;49.744;7.012;2022-11-30T12:05:35;96445.13;;;4.59;100.00
33454;BME280;39400;49.744;7.012;2022-11-30T12:11:00;96450.47;;;4.55;100.00
33454;BME280;39400;49.744;7.012;2022-11-30T12:13:32;96437.63;;;4.56;100.00
33454;BME280;39400;49.744;7.012;2022-11-30T12:24:48;96449.38;;;4.84;100.00
33454;BME280;39400;49.744;7.012;2022-11-30T12:27:36;96444.81;;;4.88;100.00
33454;BME280;39400;49.744;7.012;2022-11-30T12:30:11;96436.22;;;4.86;100.00
33454;BME280;39400;49.744;7.012;2022-11-30T12:40:57;96430.88;;;4.90;100.00
33454;BME280;39400;49.744;7.012;2022-11-30T12:43:53;96435.22;;;4.79;100.00
33454;BME280;39400;49.744;7.012;2022-11-30T12:46:32;96430.31;;;4.84;100.00
33454;BME280;39400;49.744;7.012;2022-11-30T12:49:23;96430.50;;;4.91;100.00
33454;BME280;39400;49.744;7.012;2022-11-30T12:54:46;96432.25;;;4.84;100.00
33454;BME280;39400;49.744;7.012;2022-11-30T12:57:26;96424.72;;;4.93;100.00
33454;BME280;39400;49.744;7.012;2022-11-30T13:00:07;96429.31;;;4.76;100.00
33454;BME280;39400;49.744;7.012;2022-11-30T13:02:58;96435.63;;;4.93;100.00
33454;BME280;39400;49.744;7.012;2022-11-30T13:05:36;96432.66;;;4.98;100.00
33454;BME280;39400;49.744;7.012;2022-11-30T13:08:24;96442.44;;;4.87;100.00
33454;BME280;39400;49.744;7.012;2022-11-30T13:10:55;96436.78;;;4.92;100.00
33454;BME280;39400;49.744;7.012;2022-11-30T13:13:30;96433.13;;;4.88;100.00
33454;BME280;39400;49.744;7.012;2022-11-30T13:15:58;96424.53;;;4.86;100.00
33454;BME280;39400;49.744;7.012;2022-11-30T13:18:24;96426.47;;;4.85;100.00
33454;BME280;39400;49.744;7.012;2022-11-30T13:24:04;96422.03;;;4.81;100.00
33454;BME280;39400;49.744;7.012;2022-11-30T13:26:40;96420.44;;;4.80;100.00
33454;BME280;39400;49.744;7.012;2022-11-30T13:29:35;96419.75;;;4.83;100.00
33454;BME280;39400;49.744;7.012;2022-11-30T13:32:13;96422.22;;;4.88;100.00
33454;BME280;39400;49.744;7.012;2022-11-30T13:34:39;96421.13;;;4.89;100.00
33454;BME280;39400;49.744;7.012;2022-11-30T13:37:19;96413.16;;;4.84;100.00
33454;BME280;39400;49.744;7.012;2022-11-30T13:39:51;96412.75;;;4.82;100.00
33454;BME280;39400;49.744;7.012;2022-11-30T13:44:57;96413.44;;;4.79;100.00
33454;BME280;39400;49.744;7.012;2022-11-30T13:47:28;96425.22;;;4.83;100.00
33454;BME280;39400;49.744;7.012;2022-11-30T13:49:59;96420.34;;;4.76;100.00
33454;BME280;39400;49.744;7.012;2022-11-30T13:53:15;96415.59;;;4.73;100.00
33454;BME280;39400;49.744;7.012;2022-11-30T13:58:11;96416.38;;;4.73;100.00
33454;BME280;39400;49.744;7.012;2022-11-30T14:05:50;96416.59;;;4.81;100.00
33454;BME280;39400;49.744;7.012;2022-11-30T14:10:53;96424.47;;;4.98;100.00
33454;BME280;39400;49.744;7.012;2022-11-30T14:15:52;96423.06;;;5.16;100.00
33454;BME280;39400;49.744;7.012;2022-11-30T14:23:21;96424.34;;;5.35;100.00
33454;BME280;39400;49.744;7.012;2022-11-30T14:25:50;96421.16;;;5.33;100.00
33454;BME280;39400;49.744;7.012;2022-11-30T14:28:25;96421.06;;;5.29;100.00
33454;BME280;39400;49.744;7.012;2022-11-30T14:30:54;96434.06;;;5.20;100.00
33454;BME280;39400;49.744;7.012;2022-11-30T14:33:41;96441.56;;;4.83;100.00
33454;BME280;39400;49.744;7.012;2022-11-30T14:36:09;96434.22;;;4.59;100.00
33454;BME280;39400;49.744;7.012;2022-11-30T14:38:39;96432.06;;;4.52;100.00
33454;BME280;39400;49.744;7.012;2022-11-30T14:41:05;96438.44;;;4.32;100.00
33454;BME280;39400;49.744;7.012;2022-11-30T14:43:30;96425.75;;;4.23;100.00
33454;BME280;39400;49.744;7.012;2022-11-30T14:46:01;96433.91;;;4.23;100.00
33454;BME280;39400;49.744;7.012;2022-11-30T14:48:27;96438.09;;;4.21;100.00
33454;BME280;39400;49.744;7.012;2022-11-30T14:50:57;96443.31;;;4.14;100.00
33454;BME280;39400;49.744;7.012;2022-11-30T14:56:00;96452.75;;;4.16;100.00
33454;BME280;39400;49.744;7.012;2022-11-30T14:58:46;96451.56;;;4.05;100.00